createdAt,value
2019-04-23T00:01:40.655Z,100741.14
2019-04-23T00:04:07.218Z,100735.27
2019-04-23T00:06:43.398Z,100733.60
2019-04-23T00:09:12.621Z,100736.59
2019-04-23T00:11:41.632Z,100732.86
2019-04-23T00:14:11.539Z,100734.70
2019-04-23T00:16:45.958Z,100725.58
2019-04-23T00:19:16.904Z,100728.56
2019-04-23T00:22:13.633Z,100728.24
2019-04-23T00:25:12.159Z,100729.47
2019-04-23T00:29:53.034Z,100728.33
2019-04-23T00:32:23.355Z,100719.91
2019-04-23T00:34:55.790Z,100712.27
2019-04-23T00:37:28.396Z,100715.90
2019-04-23T00:39:52.937Z,100712.00
2019-04-23T00:47:33.296Z,100718.37
2019-04-23T00:50:07.659Z,100713.52
2019-04-23T00:52:30.529Z,100705.31
2019-04-23T00:55:05.431Z,100707.84
2019-04-23T01:00:12.897Z,100710.08
2019-04-23T01:02:37.521Z,100708.63
2019-04-23T01:07:38.141Z,100711.61
2019-04-23T01:10:15.143Z,100709.42
2019-04-23T01:12:46.424Z,100707.77
2019-04-23T01:15:18.917Z,100704.41
2019-04-23T01:17:56.038Z,100708.37
2019-04-23T01:20:36.579Z,100705.53
2019-04-23T01:22:46.435Z,100692.66
2019-04-23T01:25:40.738Z,100704.92
2019-04-23T01:28:27.350Z,100701.80
2019-04-23T01:31:07.758Z,100696.97
2019-04-23T01:33:36.256Z,100702.86
2019-04-23T01:36:21.916Z,100700.48
2019-04-23T01:41:09.258Z,100696.91
2019-04-23T01:43:36.501Z,100691.69
2019-04-23T01:46:07.580Z,100689.75
2019-04-23T01:48:40.772Z,100695.31
2019-04-23T01:51:01.416Z,100686.66
2019-04-23T01:53:38.939Z,100678.44
2019-04-23T01:56:13.955Z,100672.76
2019-04-23T01:59:00.241Z,100681.95
2019-04-23T02:01:12.942Z,100674.86
2019-04-23T02:03:49.978Z,100678.25
2019-04-23T02:08:48.712Z,100675.27
2019-04-23T02:11:31.763Z,100673.74
2019-04-23T02:13:55.138Z,100677.45
2019-04-23T02:16:29.065Z,100669.17
2019-04-23T02:19:11.483Z,100668.55
2019-04-23T02:21:31.981Z,100664.41
2019-04-23T02:23:57.355Z,100659.22
2019-04-23T02:26:33.932Z,100667.50
2019-04-23T02:29:14.575Z,100662.28
2019-04-23T02:31:51.050Z,100658.80
2019-04-23T02:34:23.592Z,100660.52
2019-04-23T02:36:51.130Z,100654.75
2019-04-23T02:39:11.729Z,100652.69
2019-04-23T02:41:55.984Z,100647.13
2019-04-23T02:46:56.790Z,100653.39
2019-04-23T02:51:54.659Z,100642.97
2019-04-23T02:56:50.978Z,100642.41
2019-04-23T02:59:42.729Z,100651.61
2019-04-23T03:02:12.103Z,100644.21
2019-04-23T03:04:34.151Z,100642.77
2019-04-23T03:07:03.364Z,100636.33
2019-04-23T03:09:37.026Z,100631.69
2019-04-23T03:12:12.045Z,100636.91
2019-04-23T03:14:34.940Z,100629.67
2019-04-23T03:17:03.436Z,100630.28
2019-04-23T03:19:47.953Z,100625.98
2019-04-23T03:22:15.775Z,100631.84
2019-04-23T03:25:12.583Z,100628.28
2019-04-23T03:30:16.142Z,100619.86
2019-04-23T03:34:10.992Z,100622.72
2019-04-23T03:35:19.459Z,100618.77
2019-04-23T03:40:21.222Z,100616.95
2019-04-23T03:50:23.672Z,100618.34
2019-04-23T03:52:44.674Z,100607.50
2019-04-23T03:55:27.970Z,100610.62
2019-04-23T04:05:42.517Z,100608.23
2019-04-23T04:08:06.796Z,100596.88
2019-04-23T04:13:04.096Z,100596.41
2019-04-23T04:25:39.280Z,100602.23
2019-04-23T04:28:12.190Z,100602.02
2019-04-23T04:35:58.384Z,100606.48
2019-04-23T04:43:31.672Z,100605.85
2019-04-23T04:48:35.365Z,100590.77
2019-04-23T04:51:24.255Z,100594.46
2019-04-23T04:56:20.924Z,100589.81
2019-04-23T05:01:08.571Z,100586.95
2019-04-23T05:03:33.786Z,100587.86
2019-04-23T05:06:15.694Z,100592.47
2019-04-23T05:08:48.263Z,100587.30
2019-04-23T05:13:45.495Z,100584.59
2019-04-23T05:18:54.647Z,100587.02
2019-04-23T05:23:50.460Z,100581.22
2019-04-23T05:26:26.508Z,100582.27
2019-04-23T05:29:01.214Z,100579.80
2019-04-23T05:39:15.809Z,100577.83
2019-04-23T05:44:02.509Z,100570.44
2019-04-23T05:49:04.526Z,100572.30
2019-04-23T05:51:36.359Z,100565.15
2019-04-23T05:53:58.235Z,100572.36
2019-04-23T05:56:32.445Z,100561.34
2019-04-23T05:59:08.762Z,100560.48
2019-04-23T06:06:45.182Z,100561.12
2019-04-23T06:14:18.986Z,100556.56
2019-04-23T06:16:59.014Z,100564.30
2019-04-23T06:22:13.908Z,100566.17
2019-04-23T06:24:22.150Z,100573.80
2019-04-23T06:26:54.261Z,100569.10
2019-04-23T06:31:50.712Z,100559.16
2019-04-23T06:34:27.203Z,100567.55
2019-04-23T06:36:51.216Z,100559.21
2019-04-23T06:39:26.002Z,100548.00
2019-04-23T06:41:55.106Z,100549.39
2019-04-23T06:59:37.494Z,100537.07
2019-04-23T07:04:47.146Z,100523.34
2019-04-23T07:07:34.757Z,100531.06
2019-04-23T07:09:42.450Z,100523.91
2019-04-23T07:12:20.164Z,100527.03
2019-04-23T07:17:25.083Z,100520.50
2019-04-23T07:22:18.918Z,100517.34
2019-04-23T07:24:47.180Z,100518.70
2019-04-23T07:27:19.212Z,100514.28
2019-04-23T07:29:56.598Z,100504.52
2019-04-23T07:32:15.132Z,100514.84
2019-04-23T07:35:04.204Z,100506.91
2019-04-23T07:37:29.690Z,100505.26
2019-04-23T07:40:23.090Z,100498.06
2019-04-23T07:45:24.344Z,100490.52
2019-04-23T07:48:10.969Z,100485.14
2019-04-23T07:53:16.977Z,100480.57
2019-04-23T07:58:19.432Z,100462.84
2019-04-23T08:00:45.585Z,100461.02
2019-04-23T08:05:44.030Z,100470.38
2019-04-23T08:08:30.326Z,100453.31
2019-04-23T08:11:25.774Z,100451.33
2019-04-23T08:13:39.846Z,100462.30
2019-04-23T08:16:18.384Z,100455.84
2019-04-23T08:18:45.169Z,100452.70
2019-04-23T08:21:10.672Z,100442.25
2019-04-23T08:24:03.217Z,100450.39
2019-04-23T08:29:27.811Z,100437.31
2019-04-23T08:31:55.573Z,100433.84
2019-04-23T08:34:29.981Z,100438.66
2019-04-23T08:37:00.495Z,100421.55
2019-04-23T08:39:30.932Z,100432.66
2019-04-23T08:45:10.674Z,100429.17
2019-04-23T08:47:32.042Z,100411.72
2019-04-23T08:50:02.308Z,100399.55
2019-04-23T08:52:33.530Z,100399.55
2019-04-23T08:57:35.074Z,100404.64
2019-04-23T09:00:09.067Z,100404.47
2019-04-23T09:02:46.118Z,100392.02
2019-04-23T09:07:58.096Z,100401.12
2019-04-23T09:12:45.730Z,100391.14
2019-04-23T09:15:26.442Z,100387.39
2019-04-23T09:17:57.692Z,100386.55
2019-04-23T09:22:48.797Z,100385.02
2019-04-23T09:25:30.915Z,100383.83
2019-04-23T09:27:52.903Z,100380.76
2019-04-23T09:33:00.796Z,100372.22
2019-04-23T09:36:01.478Z,100369.48
2019-04-23T09:38:55.966Z,100358.30
2019-04-23T09:41:27.393Z,100356.81
2019-04-23T09:47:24.417Z,100358.45
2019-04-23T09:49:56.902Z,100353.44
2019-04-23T09:52:30.952Z,100356.02
2019-04-23T09:54:57.622Z,100347.91
2019-04-23T09:57:24.388Z,100345.28
2019-04-23T09:59:58.277Z,100331.91
2019-04-23T10:02:20.141Z,100343.00
2019-04-23T10:04:47.616Z,100332.44
2019-04-23T10:07:16.207Z,100331.39
2019-04-23T10:09:34.219Z,100330.72
2019-04-23T10:12:05.130Z,100327.28
2019-04-23T10:14:34.618Z,100326.89
2019-04-23T10:17:04.357Z,100311.34
2019-04-23T10:19:35.066Z,100298.70
2019-04-23T10:22:05.078Z,100288.95
2019-04-23T10:24:35.079Z,100299.46
2019-04-23T10:27:06.100Z,100302.36
2019-04-23T10:29:38.483Z,100298.36
2019-04-23T10:32:09.459Z,100303.31
2019-04-23T10:34:56.290Z,100293.30
2019-04-23T10:37:11.406Z,100277.50
2019-04-23T10:39:43.529Z,100279.78
2019-04-23T10:42:12.256Z,100280.00
2019-04-23T10:45:22.634Z,100276.66
2019-04-23T10:48:29.398Z,100269.53
2019-04-23T10:51:15.737Z,100272.98
2019-04-23T10:53:56.462Z,100260.45
2019-04-23T10:56:37.720Z,100245.27
2019-04-23T10:58:54.890Z,100256.70
2019-04-23T11:01:31.466Z,100238.92
2019-04-23T11:04:33.734Z,100241.13
2019-04-23T11:06:41.056Z,100248.76
2019-04-23T11:09:15.670Z,100233.34
2019-04-23T11:11:45.613Z,100223.20
2019-04-23T11:14:19.526Z,100231.00
2019-04-23T11:19:25.536Z,100235.31
2019-04-23T11:21:56.198Z,100233.02
2019-04-23T11:24:36.557Z,100227.36
2019-04-23T11:29:35.721Z,100232.89
2019-04-23T11:32:34.973Z,100217.68
2019-04-23T11:34:47.968Z,100219.31
2019-04-23T11:39:30.972Z,100221.58
2019-04-23T11:42:05.186Z,100214.13
2019-04-23T11:44:34.321Z,100203.02
2019-04-23T11:47:32.744Z,100210.59
2019-04-23T11:51:00.573Z,100209.72
2019-04-23T11:52:09.786Z,100198.02
2019-04-23T11:54:38.960Z,100204.86
2019-04-23T11:59:53.493Z,100198.94
2019-04-23T12:08:01.072Z,100199.20
2019-04-23T12:10:54.407Z,100192.02
2019-04-23T12:13:20.730Z,100186.98
2019-04-23T12:15:47.896Z,100183.27
2019-04-23T12:18:24.093Z,100184.45
2019-04-23T12:20:51.039Z,100184.84
2019-04-23T12:26:08.331Z,100187.52
2019-04-23T12:30:57.187Z,100174.78
2019-04-23T12:36:37.722Z,100181.59
2019-04-23T12:39:04.343Z,100180.01
2019-04-23T12:41:36.063Z,100157.03
2019-04-23T12:44:11.040Z,100181.60
2019-04-23T12:46:45.724Z,100170.99
2019-04-23T12:49:40.609Z,100154.14
2019-04-23T12:51:52.195Z,100145.48
2019-04-23T12:54:32.326Z,100163.94
2019-04-23T12:57:04.801Z,100160.03
2019-04-23T12:59:27.136Z,100152.91
2019-04-23T13:04:32.238Z,100143.16
2019-04-23T13:07:09.197Z,100147.36
2019-04-23T13:09:52.566Z,100130.73
2019-04-23T13:12:30.733Z,100133.00
2019-04-23T13:15:05.303Z,100113.64
2019-04-23T13:17:30.021Z,100122.59
2019-04-23T13:20:03.753Z,100120.28
2019-04-23T13:22:37.071Z,100113.78
2019-04-23T13:25:11.028Z,100092.20
2019-04-23T13:28:01.939Z,100109.72
2019-04-23T13:30:34.048Z,100107.17
2019-04-23T13:32:59.066Z,100096.91
2019-04-23T13:53:33.536Z,100064.97
2019-04-23T13:55:44.466Z,100047.13
2019-04-23T13:58:37.381Z,100061.03
2019-04-23T14:03:38.141Z,100051.72
2019-04-23T14:11:43.337Z,100041.70
2019-04-23T14:14:14.483Z,100033.45
2019-04-23T14:16:34.408Z,100022.61
2019-04-23T14:19:12.977Z,100026.39
2019-04-23T14:26:39.973Z,100019.86
2019-04-23T14:29:19.109Z,100018.62
2019-04-23T14:31:45.643Z,100011.73
2019-04-23T14:34:17.710Z,100014.41
2019-04-23T14:37:00.988Z,100018.48
2019-04-23T14:39:24.021Z,99988.27
2019-04-23T14:42:01.964Z,99996.13
2019-04-23T14:44:53.105Z,99996.33
2019-04-23T14:47:16.247Z,99996.76
2019-04-23T14:50:21.095Z,99995.91
2019-04-23T14:52:30.240Z,99994.30
2019-04-23T15:00:09.770Z,99986.66
2019-04-23T15:02:44.626Z,99974.70
2019-04-23T15:05:17.317Z,99967.87
2019-04-23T15:07:46.552Z,99972.94
2019-04-23T15:10:29.560Z,99953.80
2019-04-23T15:12:53.959Z,99959.16
2019-04-23T15:15:19.578Z,99965.57
2019-04-23T15:17:55.654Z,99959.36
2019-04-23T15:20:33.618Z,99958.23
2019-04-23T15:26:15.841Z,99947.63
2019-04-23T15:28:07.028Z,99956.24
2019-04-23T15:30:38.653Z,99948.45
2019-04-23T15:33:19.914Z,99940.48
2019-04-23T15:35:55.678Z,99949.92
2019-04-23T15:38:37.686Z,99943.73
2019-04-23T15:40:51.200Z,99931.55
2019-04-23T15:43:22.861Z,99932.71
2019-04-23T15:45:57.351Z,99934.89
2019-04-23T15:48:22.432Z,99934.48
2019-04-23T15:51:06.281Z,99939.93
2019-04-23T15:53:24.633Z,99926.07
2019-04-23T15:56:11.832Z,99918.66
2019-04-23T15:58:49.581Z,99928.55
2019-04-23T16:03:25.138Z,99928.27
2019-04-23T16:05:57.331Z,99907.84
2019-04-23T16:09:04.994Z,99910.66
2019-04-23T16:16:38.751Z,99914.48
2019-04-23T16:24:19.534Z,99918.86
2019-04-23T16:26:55.977Z,99930.39
2019-04-23T16:32:14.740Z,99934.45
2019-04-23T16:34:34.008Z,99936.35
2019-04-23T16:37:16.480Z,99915.13
2019-04-23T16:39:48.313Z,99916.55
2019-04-23T16:42:26.729Z,99917.42
2019-04-23T16:47:24.502Z,99917.07
2019-04-23T16:52:26.703Z,99911.41
2019-04-23T16:55:08.998Z,99927.17
2019-04-23T16:57:43.756Z,99920.69
2019-04-23T17:03:07.835Z,99915.63
2019-04-23T17:07:53.734Z,99918.21
2019-04-23T17:12:52.976Z,99912.45
2019-04-23T17:15:27.901Z,99918.64
2019-04-23T17:17:56.201Z,99911.84
2019-04-23T17:20:34.756Z,99911.38
2019-04-23T17:23:05.540Z,99907.73
2019-04-23T17:25:26.451Z,99912.97
2019-04-23T17:28:20.141Z,99930.41
2019-04-23T17:36:13.206Z,99921.23
2019-04-23T17:38:42.694Z,99913.28
2019-04-23T17:41:17.767Z,99915.77
2019-04-23T17:43:54.571Z,99915.53
2019-04-23T17:46:22.290Z,99913.05
2019-04-23T17:48:49.387Z,99915.31
2019-04-23T17:51:19.788Z,99919.53
2019-04-23T17:54:04.943Z,99913.70
2019-04-23T17:56:35.958Z,99909.58
2019-04-23T17:59:04.325Z,99909.14
2019-04-23T18:04:14.109Z,99920.96
2019-04-23T18:06:45.041Z,99911.16
2019-04-23T18:11:44.592Z,99911.13
2019-04-23T18:14:11.782Z,99905.18
2019-04-23T18:16:56.931Z,99901.58
2019-04-23T18:19:17.965Z,99899.16
2019-04-23T18:27:31.008Z,99918.28
2019-04-23T18:30:15.606Z,99918.63
2019-04-23T18:33:42.756Z,99920.88
2019-04-23T18:38:22.946Z,99921.09
2019-04-23T18:41:00.842Z,99919.08
2019-04-23T18:43:29.570Z,99918.11
2019-04-23T18:45:54.124Z,99925.47
2019-04-23T18:53:44.896Z,99923.76
2019-04-23T19:01:15.206Z,99923.16
2019-04-23T19:06:44.062Z,99926.38
2019-04-23T19:15:23.580Z,99929.78
2019-04-23T19:17:56.606Z,99920.84
2019-04-23T19:20:37.899Z,99926.69
2019-04-23T19:23:03.131Z,99916.67
2019-04-23T19:28:30.704Z,99940.58
2019-04-23T19:30:58.122Z,99937.12
2019-04-23T19:33:32.801Z,99925.42
2019-04-23T19:36:13.725Z,99937.22
2019-04-23T19:38:28.805Z,99931.68
2019-04-23T19:40:56.761Z,99940.48
2019-04-23T19:43:37.143Z,99940.45
2019-04-23T19:46:25.589Z,99937.09
2019-04-23T19:48:42.485Z,99937.34
2019-04-23T19:53:54.975Z,99933.84
2019-04-23T19:58:56.824Z,99933.63
2019-04-23T20:01:21.053Z,99935.05
2019-04-23T20:03:55.978Z,99932.34
2019-04-23T20:06:40.581Z,99938.81
2019-04-23T20:13:55.558Z,99930.71
2019-04-23T20:16:38.377Z,99928.59
2019-04-23T20:19:04.906Z,99922.45
2019-04-23T20:21:49.048Z,99930.27
2019-04-23T20:24:21.563Z,99917.73
2019-04-23T20:26:42.622Z,99923.00
2019-04-23T20:37:01.942Z,99928.53
2019-04-23T20:39:49.115Z,99925.21
2019-04-23T20:52:29.204Z,99920.34
2019-04-23T20:57:56.370Z,99913.80
2019-04-23T21:00:32.602Z,99902.61
2019-04-23T21:03:25.826Z,99912.04
2019-04-23T21:05:27.895Z,99907.64
2019-04-23T21:08:14.185Z,99910.73
2019-04-23T21:15:45.596Z,99908.02
2019-04-23T21:18:25.684Z,99908.02
2019-04-23T21:20:48.865Z,99902.87
2019-04-23T21:23:22.968Z,99904.42
2019-04-23T21:25:52.586Z,99898.42
2019-04-23T21:33:49.856Z,99892.77
2019-04-23T21:36:39.905Z,99892.97
2019-04-23T21:39:40.704Z,99897.14
2019-04-23T21:42:14.128Z,99895.96
2019-04-23T21:44:40.514Z,99887.45
2019-04-23T21:47:09.098Z,99891.22
2019-04-23T21:50:03.052Z,99888.66
2019-04-23T21:52:17.982Z,99890.02
2019-04-23T21:54:57.049Z,99886.91
2019-04-23T21:57:32.475Z,99888.09
2019-04-23T21:59:55.441Z,99889.52
2019-04-23T22:02:27.709Z,99882.85
2019-04-23T22:05:07.379Z,99875.72
2019-04-23T22:07:50.127Z,99877.09
2019-04-23T22:10:05.914Z,99878.48
2019-04-23T22:12:48.802Z,99875.94
2019-04-23T22:15:06.875Z,99868.64
2019-04-23T22:17:44.600Z,99872.98
2019-04-23T22:20:19.680Z,99870.16
2019-04-23T22:22:56.926Z,99870.50
2019-04-23T22:25:18.117Z,99868.16
2019-04-23T22:27:54.805Z,99868.39
2019-04-23T22:35:34.519Z,99865.29
2019-04-23T22:38:09.753Z,99866.94
2019-04-23T22:40:34.997Z,99864.02
2019-04-23T22:45:44.379Z,99862.05
2019-04-23T22:48:06.898Z,99856.08
2019-04-23T22:53:20.543Z,99847.27
2019-04-23T22:58:46.046Z,99840.91
2019-04-23T23:01:23.610Z,99836.30
2019-04-23T23:03:59.574Z,99842.06
2019-04-23T23:06:43.484Z,99837.69
2019-04-23T23:11:34.932Z,99838.17
2019-04-23T23:14:35.285Z,99840.52
2019-04-23T23:16:39.317Z,99840.19
2019-04-23T23:19:21.765Z,99837.53
2019-04-23T23:22:03.387Z,99837.25
2019-04-23T23:24:13.606Z,99836.77
2019-04-23T23:29:46.601Z,99835.59
2019-04-23T23:34:30.508Z,99833.95
2019-04-23T23:37:00.282Z,99836.75
2019-04-23T23:39:29.407Z,99839.27
2019-04-23T23:42:02.809Z,99839.95
2019-04-23T23:44:44.568Z,99835.14
2019-04-23T23:47:07.292Z,99837.95
2019-04-23T23:49:48.426Z,99835.66
2019-04-23T23:54:48.670Z,99833.48
